Etusivu
METAR-TAF:

METAR-TAF

Lentoasemat :

Prairie du Chien Municipal Airport

Prairie du Chien, Wisconsin, Yhdysvallat

Leveyspiiri: 43-01-19N, Pituuspiiri: 091-07-29W, korkeus merenpinnasta: 201 m

Tämänhetkinen sää

Tämä raportti tehtiin 22 minuuttia sitten, kello 16.55 UTC
Tuuli 4 kn etelästä
Lämpötila -6°C
Kosteus 79%
Ilmanpaine 1017 hPa
Näkyvyys: 1.2 km
Pilvistä 500 ft:n korkeudessa
heikkoa lumisadetta

METAR: KPDC 131655Z AUTO 17004KT 3/4SM -SN OVC005 M06/M09 A3004 RMK AO2 T10631087

Aika: 11:17 (17:17 UTC)


TAF: puuttuu

Säähavainnot ja -ennusteet yli 4000 lentoasemalta (METAR- ja TAF-raportit).

Käytössä olevat sääasemat on merkitty karttaan keltaisilla ja punaisilla pisteillä.

Aseta hiiri pisteen päälle nähdäksesi sääaseman nimen.

Klikkaa sitten nähdäksesi säähavainnot ja -ennusteet.

Kartan vaihtaminen: klikkaa mustalla rastilla varustettuja vihreitä pisteitä, niin voit zoomata sisään; viivalla varustettua vihreää pistettä, niin voit zoomata ulos tai vihreitä nuolia, niin pääset viereisille kartoille.


METAR-TAF: